createdAt,value
2018-03-03T00:02:04.339Z,92.12
2018-03-03T00:04:56.652Z,91.40
2018-03-03T00:07:27.817Z,65.63
2018-03-03T00:09:56.975Z,85.82
2018-03-03T00:12:26.155Z,89.03
2018-03-03T00:15:00.084Z,71.40
2018-03-03T00:20:06.622Z,84.28
2018-03-03T00:22:41.743Z,84.60
2018-03-03T00:25:10.915Z,69.10
2018-03-03T00:27:45.585Z,83.35
2018-03-03T00:30:14.777Z,87.62
2018-03-03T00:32:43.955Z,71.27
2018-03-03T00:35:13.159Z,84.00
2018-03-03T00:37:42.328Z,88.20
2018-03-03T00:40:11.515Z,70.27
2018-03-03T00:42:40.687Z,89.60
2018-03-03T00:45:09.842Z,90.22
2018-03-03T00:47:47.254Z,89.70
2018-03-03T00:50:16.424Z,72.67
2018-03-03T00:58:04.834Z,89.50
2018-03-03T01:00:34.062Z,88.12
2018-03-03T01:03:04.258Z,68.17
2018-03-03T01:05:35.411Z,84.80
2018-03-03T01:08:04.615Z,88.53
2018-03-03T01:10:37.795Z,88.90
2018-03-03T01:13:07.003Z,68.83
2018-03-03T01:15:36.204Z,86.22
2018-03-03T01:18:05.361Z,80.93
2018-03-03T01:20:36.562Z,84.00
2018-03-03T01:23:05.763Z,60.43
2018-03-03T01:25:34.976Z,80.78
2018-03-03T01:28:04.143Z,85.90
2018-03-03T01:30:33.279Z,69.73
2018-03-03T01:33:02.468Z,85.78
2018-03-03T01:35:31.671Z,90.15
2018-03-03T01:43:16.620Z,89.40
2018-03-03T01:46:04.167Z,69.47
2018-03-03T01:48:41.246Z,92.70
2018-03-03T01:51:28.248Z,97.25
2018-03-03T01:53:58.331Z,70.30
2018-03-03T01:59:07.023Z,95.10
2018-03-03T02:01:38.335Z,69.20
2018-03-03T02:04:07.508Z,91.18
2018-03-03T02:06:36.679Z,68.90
2018-03-03T02:09:11.022Z,92.85
2018-03-03T02:11:40.168Z,66.83
2018-03-03T02:16:44.604Z,90.75
2018-03-03T02:19:13.810Z,65.33
2018-03-03T02:21:43.068Z,96.82
2018-03-03T02:24:21.043Z,110.00
2018-03-03T02:27:02.121Z,75.47
2018-03-03T02:29:31.292Z,68.90
2018-03-03T02:32:13.297Z,60.97
2018-03-03T02:35:12.408Z,57.92
2018-03-03T02:37:41.624Z,48.45
2018-03-03T02:40:12.703Z,49.60
2018-03-03T02:45:45.193Z,77.53
2018-03-03T02:48:14.399Z,57.67
2018-03-03T02:50:44.588Z,86.95
2018-03-03T02:53:13.755Z,68.53
2018-03-03T02:55:43.008Z,58.00
2018-03-03T02:58:12.155Z,52.20
2018-03-03T03:00:54.481Z,82.50
2018-03-03T03:03:23.636Z,59.80
2018-03-03T03:06:12.085Z,56.22
2018-03-03T03:08:50.338Z,58.05
2018-03-03T03:11:19.554Z,61.78
2018-03-03T03:13:58.616Z,65.20
2018-03-03T03:16:27.787Z,76.32
2018-03-03T03:18:56.986Z,142.10
2018-03-03T03:21:27.075Z,268.17
2018-03-03T03:23:56.293Z,231.55
2018-03-03T03:26:25.472Z,189.07
2018-03-03T03:31:29.841Z,406.80
2018-03-03T03:33:59.955Z,191.95
2018-03-03T03:36:29.121Z,189.48
2018-03-03T03:39:01.420Z,120.97
2018-03-03T03:41:30.592Z,183.07
2018-03-03T03:43:59.798Z,116.25
2018-03-03T03:46:28.976Z,130.87
2018-03-03T03:49:03.566Z,79.95
2018-03-03T03:51:38.578Z,80.12
2018-03-03T03:56:46.214Z,220.45
2018-03-03T03:59:15.419Z,123.18
2018-03-03T04:01:58.389Z,77.32
2018-03-03T04:04:27.579Z,53.03
2018-03-03T04:07:11.724Z,68.45
2018-03-03T04:09:46.500Z,61.20
2018-03-03T04:12:15.703Z,52.60
2018-03-03T04:14:52.418Z,49.90
2018-03-03T04:17:21.580Z,44.42
2018-03-03T04:20:12.795Z,41.05
2018-03-03T04:22:43.951Z,39.88
2018-03-03T04:25:13.135Z,37.10
2018-03-03T04:27:49.603Z,39.65
2018-03-03T04:30:18.764Z,37.13
2018-03-03T04:32:52.831Z,41.70
2018-03-03T04:35:22.019Z,38.85
2018-03-03T04:37:53.126Z,61.25
2018-03-03T04:40:22.318Z,53.33
2018-03-03T04:42:56.989Z,84.78
2018-03-03T04:45:26.199Z,54.40
2018-03-03T04:47:57.340Z,80.50
2018-03-03T04:50:26.528Z,54.20
2018-03-03T04:53:13.189Z,66.20
2018-03-03T04:55:46.277Z,49.22
2018-03-03T05:01:18.218Z,74.53
2018-03-03T05:03:50.403Z,52.65
2018-03-03T05:06:22.062Z,50.72
2018-03-03T05:08:51.260Z,71.07
2018-03-03T05:11:20.452Z,75.17
2018-03-03T05:13:57.234Z,56.03
2018-03-03T05:16:27.239Z,52.22
2018-03-03T05:19:19.140Z,49.15
2018-03-03T05:21:56.959Z,45.50
2018-03-03T05:30:22.375Z,66.35
2018-03-03T05:35:34.596Z,77.95
2018-03-03T05:41:18.640Z,70.28
2018-03-03T05:43:56.384Z,54.67
2018-03-03T05:46:31.057Z,52.08
2018-03-03T05:55:21.147Z,76.12
2018-03-03T05:58:09.539Z,54.20
2018-03-03T06:12:12.239Z,76.03
2018-03-03T06:17:19.451Z,72.47
2018-03-03T06:19:52.272Z,53.53
2018-03-03T06:22:21.457Z,50.63
2018-03-03T06:24:51.555Z,47.97
2018-03-03T06:27:20.702Z,40.78
2018-03-03T06:29:49.954Z,62.13
2018-03-03T06:32:19.204Z,52.22
2018-03-03T06:37:23.564Z,61.45
2018-03-03T06:40:06.518Z,47.60
2018-03-03T06:42:35.687Z,47.78
2018-03-03T06:45:09.460Z,58.35
2018-03-03T06:47:40.582Z,48.03
2018-03-03T06:50:13.103Z,43.53
2018-03-03T06:52:55.952Z,45.33
2018-03-03T06:55:25.140Z,46.75
2018-03-03T06:58:12.443Z,59.55
2018-03-03T07:00:41.694Z,61.17
2018-03-03T07:03:10.824Z,61.05
2018-03-03T07:05:53.155Z,58.90
2018-03-03T07:08:22.346Z,47.72
2018-03-03T07:11:04.667Z,42.25
2018-03-03T07:13:35.793Z,41.13
2018-03-03T07:16:12.543Z,46.53
2018-03-03T07:21:16.941Z,55.40
2018-03-03T07:23:51.587Z,45.43
2018-03-03T07:26:20.760Z,58.25
2018-03-03T07:29:00.296Z,49.67
2018-03-03T07:31:29.465Z,62.03
2018-03-03T07:34:07.019Z,63.45
2018-03-03T07:36:36.275Z,56.60
2018-03-03T07:39:05.543Z,66.22
2018-03-03T07:41:35.691Z,66.75
2018-03-03T07:44:08.187Z,56.37
2018-03-03T07:46:37.388Z,73.85
2018-03-03T07:49:06.567Z,77.12
2018-03-03T07:51:36.883Z,65.43
2018-03-03T07:54:13.695Z,75.82
2018-03-03T07:59:47.789Z,78.07
2018-03-03T08:02:16.991Z,65.40
2018-03-03T08:05:02.052Z,76.32
2018-03-03T08:07:31.425Z,58.57
2018-03-03T08:10:16.608Z,76.32
2018-03-03T08:15:24.107Z,79.90
2018-03-03T08:17:53.267Z,67.63
2018-03-03T08:20:23.372Z,80.10
2018-03-03T08:22:52.531Z,81.97
2018-03-03T08:27:58.991Z,81.47
2018-03-03T08:30:28.335Z,65.57
2018-03-03T08:34:14.672Z,79.87
2018-03-03T08:36:48.448Z,64.40
2018-03-03T08:39:17.643Z,81.32
2018-03-03T08:41:48.747Z,82.30
2018-03-03T08:44:20.959Z,69.90
2018-03-03T08:46:50.114Z,79.55
2018-03-03T08:49:19.260Z,63.07
2018-03-03T08:51:48.465Z,76.30
2018-03-03T08:56:53.935Z,78.35
2018-03-03T09:01:58.274Z,81.32
2018-03-03T09:07:02.615Z,76.22
2018-03-03T09:09:32.719Z,79.32
2018-03-03T09:12:01.858Z,67.87
2018-03-03T09:14:31.020Z,66.70
2018-03-03T09:17:00.235Z,79.65
2018-03-03T09:19:29.524Z,80.32
2018-03-03T09:21:58.673Z,65.00
2018-03-03T09:24:27.819Z,63.40
2018-03-03T09:26:56.986Z,64.27
2018-03-03T09:32:01.383Z,77.62
2018-03-03T09:37:09.554Z,75.75
2018-03-03T09:39:48.416Z,64.40
2018-03-03T09:42:22.694Z,63.57
2018-03-03T09:44:57.705Z,65.13
2018-03-03T09:50:10.536Z,80.60
2018-03-03T09:55:21.934Z,83.18
2018-03-03T09:57:59.491Z,70.20
2018-03-03T10:00:37.019Z,66.30
2018-03-03T10:03:11.521Z,64.47
2018-03-03T10:08:21.664Z,83.28
2018-03-03T10:10:54.593Z,70.77
2018-03-03T10:13:23.847Z,66.57
2018-03-03T10:15:58.143Z,63.80
2018-03-03T10:18:31.022Z,63.77
2018-03-03T10:21:04.631Z,78.20
2018-03-03T10:23:46.421Z,80.15
2018-03-03T10:28:56.315Z,81.05
2018-03-03T10:31:34.198Z,64.63
2018-03-03T10:34:03.401Z,63.60
2018-03-03T10:36:38.280Z,76.43
2018-03-03T10:39:17.163Z,67.00
2018-03-03T10:41:46.330Z,62.70
2018-03-03T10:44:18.994Z,61.77
2018-03-03T10:46:48.291Z,60.97
2018-03-03T10:51:52.632Z,74.75
2018-03-03T10:56:59.083Z,76.10
2018-03-03T10:59:33.588Z,63.77
2018-03-03T11:02:07.439Z,64.93
2018-03-03T11:04:36.592Z,59.10
2018-03-03T11:07:05.745Z,61.07
2018-03-03T11:09:35.855Z,73.53
2018-03-03T11:12:05.032Z,66.00
2018-03-03T11:14:34.183Z,62.83
2018-03-03T11:17:03.371Z,63.13
2018-03-03T11:22:09.776Z,71.37
2018-03-03T11:24:38.939Z,64.00
2018-03-03T11:27:12.224Z,64.47
2018-03-03T11:29:41.518Z,63.70
2018-03-03T11:32:10.897Z,64.70
2018-03-03T11:34:40.408Z,63.83
2018-03-03T11:37:15.382Z,67.93
2018-03-03T11:39:44.545Z,64.27
2018-03-03T11:42:16.017Z,66.50
2018-03-03T11:44:46.742Z,65.50
2018-03-03T11:47:15.939Z,72.72
2018-03-03T11:49:45.090Z,67.87
2018-03-03T11:52:14.303Z,66.00
2018-03-03T11:54:43.467Z,64.90
2018-03-03T11:57:12.629Z,62.97
2018-03-03T11:59:41.783Z,63.83
2018-03-03T12:02:10.945Z,63.20
2018-03-03T12:04:40.537Z,63.87
2018-03-03T12:07:09.716Z,66.23
2018-03-03T12:09:38.877Z,61.70
2018-03-03T12:12:08.020Z,64.03
2018-03-03T12:14:37.185Z,68.60
2018-03-03T12:17:07.329Z,63.80
2018-03-03T12:19:36.505Z,65.63
2018-03-03T12:22:05.669Z,66.17
2018-03-03T12:24:34.831Z,68.87
2018-03-03T12:27:03.994Z,66.30
2018-03-03T12:29:33.143Z,69.93
2018-03-03T12:32:09.628Z,64.87
2018-03-03T12:34:38.779Z,70.73
2018-03-03T12:37:07.963Z,68.10
2018-03-03T12:39:37.123Z,65.27
2018-03-03T12:42:06.308Z,77.28
2018-03-03T12:44:35.531Z,77.35
2018-03-03T12:47:04.671Z,66.40
2018-03-03T12:49:33.840Z,64.53
2018-03-03T12:52:04.975Z,65.43
2018-03-03T12:57:12.488Z,72.30
2018-03-03T12:59:41.620Z,74.80
2018-03-03T13:02:10.812Z,66.30
2018-03-03T13:04:39.963Z,63.93
2018-03-03T13:07:10.127Z,61.70
2018-03-03T13:09:39.306Z,59.83
2018-03-03T13:12:13.331Z,60.00
2018-03-03T13:14:42.507Z,62.87
2018-03-03T13:17:12.639Z,58.30
2018-03-03T13:19:41.796Z,56.57
2018-03-03T13:22:10.999Z,56.90
2018-03-03T13:24:40.123Z,57.93
2018-03-03T13:27:11.328Z,55.70
2018-03-03T13:29:41.130Z,57.27
2018-03-03T13:34:46.023Z,67.72
2018-03-03T13:37:15.200Z,69.20
2018-03-03T13:39:44.397Z,66.90
2018-03-03T13:42:15.518Z,58.40
2018-03-03T13:44:47.811Z,56.13
2018-03-03T13:52:28.234Z,65.30
2018-03-03T13:54:57.427Z,65.15
2018-03-03T13:57:27.523Z,63.83
2018-03-03T14:00:01.634Z,54.00
2018-03-03T14:02:30.798Z,55.60
2018-03-03T14:05:00.056Z,53.57
2018-03-03T14:07:29.228Z,52.80
2018-03-03T14:09:58.453Z,54.20
2018-03-03T14:12:31.060Z,53.50
2018-03-03T14:15:00.235Z,51.60
2018-03-03T14:17:32.208Z,60.10
2018-03-03T14:20:06.425Z,54.20
2018-03-03T14:22:35.579Z,52.70
2018-03-03T14:25:04.742Z,51.10
2018-03-03T14:27:33.894Z,50.60
2018-03-03T14:30:03.086Z,48.33
2018-03-03T14:32:32.304Z,52.53
2018-03-03T14:35:14.430Z,49.23
2018-03-03T14:37:44.652Z,48.37
2018-03-03T14:40:14.739Z,50.10
2018-03-03T14:42:43.968Z,50.90
2018-03-03T14:47:48.362Z,59.85
2018-03-03T14:50:23.137Z,61.60
2018-03-03T14:55:32.357Z,58.65
2018-03-03T14:58:05.882Z,57.13
2018-03-03T15:00:39.592Z,57.70
2018-03-03T15:03:13.569Z,58.47
2018-03-03T15:05:49.095Z,49.90
2018-03-03T15:11:21.370Z,56.33
2018-03-03T15:16:31.729Z,54.47
2018-03-03T15:21:39.021Z,55.28
2018-03-03T15:26:47.032Z,54.00
2018-03-03T15:29:25.641Z,49.77
2018-03-03T15:32:02.185Z,44.73
2018-03-03T15:34:36.310Z,45.87
2018-03-03T15:40:04.297Z,52.80
2018-03-03T15:42:36.463Z,41.83
2018-03-03T15:45:06.958Z,45.43
2018-03-03T15:47:41.003Z,40.90
2018-03-03T15:50:15.869Z,42.53
2018-03-03T15:55:23.671Z,53.20
2018-03-03T15:57:54.302Z,46.90
2018-03-03T16:00:25.574Z,45.97
2018-03-03T16:05:30.824Z,52.65
2018-03-03T16:08:09.462Z,46.10
2018-03-03T16:10:43.291Z,42.60
2018-03-03T16:13:17.488Z,45.33
2018-03-03T16:15:52.636Z,54.38
2018-03-03T16:18:26.719Z,45.57
2018-03-03T16:20:57.803Z,44.60
2018-03-03T16:23:28.039Z,46.37
2018-03-03T16:28:33.814Z,57.50
2018-03-03T16:33:43.549Z,57.20
2018-03-03T16:36:21.167Z,47.43
2018-03-03T16:38:54.791Z,53.17
2018-03-03T16:41:28.678Z,44.40
2018-03-03T16:44:03.114Z,44.13
2018-03-03T16:46:37.459Z,53.97
2018-03-03T16:49:11.101Z,46.33
2018-03-03T16:51:46.034Z,42.67
2018-03-03T16:57:25.091Z,55.33
2018-03-03T17:02:34.841Z,55.05
2018-03-03T17:05:08.314Z,50.53
2018-03-03T17:07:41.667Z,59.35
2018-03-03T17:10:24.709Z,58.38
2018-03-03T17:15:37.704Z,62.80
2018-03-03T17:23:28.327Z,67.03
2018-03-03T17:26:02.701Z,50.63
2018-03-03T17:28:37.879Z,63.22
2018-03-03T17:33:58.362Z,65.40
2018-03-03T17:36:33.381Z,55.43
2018-03-03T17:39:19.832Z,63.63
2018-03-03T17:44:30.391Z,70.30
2018-03-03T17:47:09.131Z,57.10
2018-03-03T17:49:44.272Z,69.12
2018-03-03T17:52:22.268Z,58.87
2018-03-03T17:57:32.585Z,72.55
2018-03-03T18:00:06.127Z,69.15
2018-03-03T18:02:39.736Z,58.90
2018-03-03T18:08:29.131Z,68.47
2018-03-03T18:13:42.262Z,71.43
2018-03-03T18:16:16.615Z,60.70
2018-03-03T18:18:50.670Z,72.65
2018-03-03T18:21:50.126Z,74.17
2018-03-03T18:27:04.022Z,72.47
2018-03-03T18:29:37.331Z,71.20
2018-03-03T18:32:06.509Z,67.90
2018-03-03T18:34:35.707Z,55.17
2018-03-03T18:37:05.770Z,63.00
2018-03-03T18:39:34.926Z,66.45
2018-03-03T18:42:04.884Z,53.90
2018-03-03T18:44:43.636Z,64.57
2018-03-03T18:47:12.910Z,55.27
2018-03-03T18:49:45.230Z,65.10
2018-03-03T18:52:23.226Z,52.30
2018-03-03T18:54:52.389Z,63.78
2018-03-03T18:57:28.954Z,51.90
2018-03-03T18:59:58.119Z,59.25
2018-03-03T19:05:19.380Z,63.92
2018-03-03T19:07:48.576Z,53.70
2018-03-03T19:10:46.302Z,61.55
2018-03-03T19:13:15.522Z,50.63
2018-03-03T19:18:22.404Z,66.00
2018-03-03T19:20:51.842Z,64.10
2018-03-03T19:23:23.011Z,50.83
2018-03-03T19:25:52.551Z,62.90
2018-03-03T19:28:36.587Z,53.50
2018-03-03T19:31:05.745Z,62.30
2018-03-03T19:33:34.880Z,55.50
2018-03-03T19:36:04.045Z,65.53
2018-03-03T19:38:33.460Z,54.43
2018-03-03T19:41:02.637Z,65.93
2018-03-03T19:43:31.802Z,55.50
2018-03-03T19:46:00.984Z,66.22
2018-03-03T19:48:30.191Z,66.80
2018-03-03T19:51:09.888Z,69.35
2018-03-03T19:53:39.208Z,55.43
2018-03-03T19:56:13.247Z,65.32
2018-03-03T19:58:50.359Z,51.30
2018-03-03T20:01:19.517Z,65.62
2018-03-03T20:06:25.876Z,63.40
2018-03-03T20:08:55.040Z,52.23
2018-03-03T20:11:24.215Z,64.78
2018-03-03T20:13:54.314Z,66.40
2018-03-03T20:16:23.472Z,54.20
2018-03-03T20:18:55.950Z,64.28
2018-03-03T20:21:25.093Z,58.13
2018-03-03T20:23:55.477Z,67.03
2018-03-03T20:26:24.650Z,55.40
2018-03-03T20:31:31.496Z,67.87
2018-03-03T20:34:00.674Z,57.63
2018-03-03T20:36:29.846Z,70.87
2018-03-03T20:39:03.862Z,72.03
2018-03-03T20:41:46.564Z,60.47
2018-03-03T20:44:15.754Z,71.18
2018-03-03T20:47:06.656Z,76.00
2018-03-03T20:52:13.504Z,72.57
2018-03-03T20:54:54.047Z,79.15
2018-03-03T20:57:23.236Z,63.20
2018-03-03T21:00:06.335Z,76.10
2018-03-03T21:05:16.679Z,75.70
2018-03-03T21:07:49.347Z,62.50
2018-03-03T21:10:26.420Z,72.77
2018-03-03T21:12:56.545Z,76.20
2018-03-03T21:15:25.761Z,59.90
2018-03-03T21:17:55.111Z,71.18
2018-03-03T21:20:31.720Z,73.35
2018-03-03T21:23:02.008Z,59.37
2018-03-03T21:25:34.670Z,70.28
2018-03-03T21:28:03.926Z,75.90
2018-03-03T21:30:33.978Z,63.00
2018-03-03T21:33:03.139Z,72.05
2018-03-03T21:35:34.295Z,73.20
2018-03-03T21:38:05.595Z,61.77
2018-03-03T21:40:34.817Z,69.97
2018-03-03T21:45:39.337Z,75.43
2018-03-03T21:50:50.200Z,77.50
2018-03-03T21:53:21.414Z,57.40
2018-03-03T21:55:50.579Z,74.72
2018-03-03T21:58:19.732Z,65.67
2018-03-03T22:00:49.071Z,75.80
2018-03-03T22:03:18.228Z,79.37
2018-03-03T22:05:59.825Z,62.93
2018-03-03T22:08:29.581Z,72.90
2018-03-03T22:13:35.064Z,75.12
2018-03-03T22:16:06.387Z,57.27
2018-03-03T22:18:35.652Z,74.28
2018-03-03T22:21:21.436Z,75.28
2018-03-03T22:24:08.070Z,62.30
2018-03-03T22:29:12.749Z,94.05
2018-03-03T22:32:00.124Z,93.30
2018-03-03T22:34:29.453Z,68.33
2018-03-03T22:36:58.700Z,78.10
2018-03-03T22:39:27.883Z,59.73
2018-03-03T22:41:57.067Z,74.43
2018-03-03T22:44:26.313Z,73.87
2018-03-03T22:47:14.027Z,76.78
2018-03-03T22:50:05.516Z,58.47
2018-03-03T22:52:34.907Z,78.03
2018-03-03T22:55:16.526Z,78.28
2018-03-03T22:57:54.816Z,61.43
2018-03-03T23:00:24.191Z,76.57
2018-03-03T23:02:53.828Z,81.60
2018-03-03T23:05:23.338Z,81.22
2018-03-03T23:07:53.606Z,80.68
2018-03-03T23:10:22.884Z,63.20
2018-03-03T23:13:05.160Z,80.15
2018-03-03T23:15:34.803Z,60.80
2018-03-03T23:18:09.711Z,82.60
2018-03-03T23:20:38.925Z,85.72
2018-03-03T23:26:16.894Z,85.00
2018-03-03T23:28:50.409Z,67.53
2018-03-03T23:31:19.580Z,86.80
2018-03-03T23:33:48.843Z,95.50
2018-03-03T23:36:18.952Z,66.47
2018-03-03T23:38:56.635Z,88.32
2018-03-03T23:41:25.795Z,67.30
2018-03-03T23:44:02.619Z,87.82
2018-03-03T23:46:32.254Z,91.10
2018-03-03T23:49:08.455Z,71.30
2018-03-03T23:54:16.795Z,95.70
2018-03-03T23:56:46.323Z,74.67
2018-03-03T23:59:15.531Z,92.82
